Time;durP1;ratioP1;P1;durP2;ratioP2;P2;SDS_P1;SDS_P2;PMS_P1;PMS_P2;Temp;Humidity;BMP_temperature;BMP_pressure;BME280_temperature;BME280_humidity;BME280_pressure;Samples;Min_cycle;Max_cycle;Signal;HPM_P1;HPM_P2
2023/02/16 00:01:35;;;;;;;50.10;32.58;;;77.20;2227.20;;;;;;5050855;28;20044;-62
2023/02/16 00:04:08;;;;;;;56.90;31.60;;;77.20;2227.20;;;;;;5050935;28;20395;-63
2023/02/16 00:06:34;;;;;;;44.57;27.63;;;77.00;2227.20;;;;;;5050863;28;20021;-63
2023/02/16 00:08:59;;;;;;;61.08;33.92;;;76.80;2227.20;;;;;;5050379;28;20393;-63
2023/02/16 00:14:24;;;;;;;57.28;32.10;;;76.90;2227.20;;;;;;5051101;28;20128;-62
2023/02/16 00:16:54;;;;;;;42.45;26.75;;;76.90;2227.20;;;;;;5050918;28;20040;-63
2023/02/16 00:19:27;;;;;;;49.60;28.92;;;77.00;2227.20;;;;;;5050989;28;20391;-62
2023/02/16 00:21:57;;;;;;;56.50;32.63;;;76.80;2227.20;;;;;;5050284;28;20025;-63
2023/02/16 00:24:25;;;;;;;48.88;29.08;;;76.80;2227.20;;;;;;5050337;28;20459;-63
2023/02/16 00:26:52;;;;;;;58.95;35.95;;;76.90;2227.20;;;;;;5050477;28;20068;-63
2023/02/16 00:29:32;;;;;;;58.75;32.35;;;77.00;2227.20;;;;;;5050744;28;20537;-63
2023/02/16 00:31:59;;;;;;;59.17;32.13;;;77.00;2227.20;;;;;;5050763;28;20422;-62
2023/02/16 00:34:27;;;;;;;47.03;27.63;;;77.10;2227.20;;;;;;5049583;28;20064;-62
2023/02/16 00:36:53;;;;;;;55.42;35.25;;;76.90;2227.20;;;;;;5050373;28;20414;-63
2023/02/16 00:39:19;;;;;;;55.80;32.53;;;77.00;2227.20;;;;;;5050361;28;20025;-62
2023/02/16 00:41:52;;;;;;;67.03;38.78;;;77.10;2227.20;;;;;;5050096;28;20027;-63
2023/02/16 00:44:28;;;;;;;60.92;32.33;;;77.20;2227.20;;;;;;5050298;28;20138;-63
2023/02/16 00:46:54;;;;;;;63.03;31.63;;;77.20;2227.20;;;;;;5031650;28;20415;-63
2023/02/16 00:49:21;;;;;;;80.03;42.60;;;77.10;2227.20;;;;;;5045926;28;20037;-63
2023/02/16 00:51:47;;;;;;;67.10;37.00;;;76.90;2227.20;;;;;;5037870;28;20025;-61
2023/02/16 00:54:13;;;;;;;88.68;44.15;;;76.90;2227.20;;;;;;5040414;28;20017;-62
2023/02/16 00:56:40;;;;;;;57.25;31.65;;;76.90;2227.20;;;;;;5039285;28;20022;-62
2023/02/16 00:59:10;;;;;;;42.15;23.65;;;77.00;2227.20;;;;;;5039356;28;20024;-62
2023/02/16 01:01:36;;;;;;;56.45;30.98;;;77.00;2227.20;;;;;;5041439;28;20026;-62
2023/02/16 01:04:05;;;;;;;93.50;45.47;;;77.00;2227.20;;;;;;5040016;28;20498;-61
2023/02/16 01:12:13;;;;;;;69.82;33.17;;;76.80;2227.20;;;;;;5033514;28;20036;-61
2023/02/16 01:14:39;;;;;;;45.38;24.15;;;76.90;2227.20;;;;;;5039758;28;20033;-62
2023/02/16 01:17:05;;;;;;;43.97;24.77;;;76.90;2227.20;;;;;;5041643;28;20037;-63
2023/02/16 01:19:30;;;;;;;50.05;28.75;;;76.80;2227.20;;;;;;5040356;28;20037;-62
2023/02/16 01:21:56;;;;;;;56.50;32.42;;;76.90;2227.20;;;;;;5043230;28;20021;-63
2023/02/16 01:24:22;;;;;;;54.88;31.35;;;76.90;2227.20;;;;;;5043470;28;20075;-61
2023/02/16 01:26:49;;;;;;;57.83;32.53;;;76.80;2227.20;;;;;;5042389;28;20093;-62
2023/02/16 01:29:21;;;;;;;81.70;47.35;;;76.90;2227.20;;;;;;5042304;28;20076;-62
2023/02/16 01:31:46;;;;;;;78.47;42.78;;;76.90;2227.20;;;;;;5043206;28;20442;-61
2023/02/16 01:34:13;;;;;;;82.13;45.88;;;76.90;2227.20;;;;;;5026662;28;20048;-62
2023/02/16 01:36:47;;;;;;;57.75;35.42;;;76.90;2227.20;;;;;;5044484;28;20102;-62
2023/02/16 01:39:19;;;;;;;116.00;66.30;;;76.90;2227.20;;;;;;5042862;28;20061;-63
2023/02/16 01:42:03;;;;;;;100.45;57.67;;;76.90;2227.20;;;;;;5043782;28;20029;-64
2023/02/16 01:44:32;;;;;;;63.95;36.17;;;76.90;2227.20;;;;;;5041220;28;20133;-62
2023/02/16 01:47:19;;;;;;;91.78;55.05;;;76.90;2227.20;;;;;;5041783;28;20533;-62
2023/02/16 01:49:45;;;;;;;92.25;47.33;;;76.80;2227.20;;;;;;5042401;28;20048;-63
2023/02/16 01:52:31;;;;;;;60.90;34.72;;;76.90;2227.20;;;;;;5052870;28;20029;-62
2023/02/16 01:55:11;;;;;;;68.15;39.42;;;76.80;2227.20;;;;;;5053141;28;20036;-62
2023/02/16 01:57:53;;;;;;;83.82;48.38;;;76.90;2227.20;;;;;;5053045;28;20021;-62
2023/02/16 02:00:50;;;;;;;96.32;50.65;;;76.90;2227.20;;;;;;5053347;28;20459;-62
2023/02/16 02:06:19;;;;;;;66.05;37.13;;;76.90;2227.20;;;;;;5053179;28;20075;-62
2023/02/16 02:09:12;;;;;;;55.67;32.25;;;76.90;2227.20;;;;;;5052808;28;20479;-62
2023/02/16 02:11:44;;;;;;;62.13;38.50;;;76.90;2227.20;;;;;;5053179;28;20487;-62
2023/02/16 02:14:18;;;;;;;87.55;47.60;;;76.90;2227.20;;;;;;5053032;28;20059;-62
2023/02/16 02:17:02;;;;;;;67.18;42.00;;;76.80;2227.20;;;;;;5057562;28;20033;-62
2023/02/16 02:19:30;;;;;;;81.47;48.72;;;52.10;2227.20;;;;;;5058469;28;20025;-67
2023/02/16 02:26:19;;;;;;;128.77;60.78;;;52.10;2227.20;;;;;;4957504;29;20139;-63
2023/02/16 02:29:15;;;;;;;55.25;28.65;;;52.10;2227.20;;;;;;4934298;29;20575;-62
2023/02/16 02:32:25;;;;;;;37.92;18.15;;;52.10;2227.20;;;;;;4933422;29;20546;-62
2023/02/16 02:34:51;;;;;;;108.40;50.83;;;51.90;2227.20;;;;;;4895611;29;20064;-62
2023/02/16 02:37:35;;;;;;;79.53;38.42;;;51.90;2227.20;;;;;;4895427;29;20119;-63
2023/02/16 02:40:16;;;;;;;180.38;86.30;;;51.40;2227.20;;;;;;4895585;29;20032;-62
2023/02/16 02:42:47;;;;;;;103.85;51.85;;;51.40;2227.20;;;;;;4895651;29;20041;-62
2023/02/16 02:45:21;;;;;;;75.90;38.08;;;51.50;2227.20;;;;;;4895392;29;20053;-63
2023/02/16 02:47:47;;;;;;;44.30;24.83;;;51.50;2227.20;;;;;;4895287;29;20048;-62
2023/02/16 02:50:31;;;;;;;48.28;22.73;;;51.50;2227.20;;;;;;4895353;29;20084;-62
2023/02/16 02:53:00;;;;;;;56.35;29.67;;;51.60;2227.20;;;;;;4895058;29;20040;-62
2023/02/16 03:00:57;;;;;;;37.00;20.48;;;51.80;2227.20;;;;;;4905529;29;20079;-62
2023/02/16 03:03:32;;;;;;;44.47;23.40;;;51.80;2227.20;;;;;;4987775;28;20046;-63
2023/02/16 03:06:14;;;;;;;29.90;17.48;;;51.90;2227.20;;;;;;5039322;28;20036;-62
2023/02/16 03:08:44;;;;;;;29.85;16.58;;;51.90;2227.20;;;;;;5052113;28;20438;-62
2023/02/16 03:14:05;;;;;;;29.83;15.25;;;51.60;2227.20;;;;;;5051927;28;20502;-62
2023/02/16 03:16:36;;;;;;;27.45;16.80;;;51.60;2227.20;;;;;;5052177;28;20364;-62
2023/02/16 03:30:16;;;;;;;31.42;15.88;;;51.70;2227.20;;;;;;5036665;28;20509;-63
2023/02/16 03:32:43;;;;;;;26.05;14.32;;;51.60;2227.20;;;;;;5051484;28;20021;-62
2023/02/16 03:35:11;;;;;;;24.83;13.52;;;51.70;2227.20;;;;;;5051527;28;20052;-62
2023/02/16 03:37:38;;;;;;;25.58;15.65;;;51.80;2227.20;;;;;;5051449;28;20437;-63
2023/02/16 03:42:51;;;;;;;26.08;14.82;;;51.90;2227.20;;;;;;5051044;28;20047;-62
2023/02/16 03:45:18;;;;;;;38.97;19.80;;;51.80;2227.20;;;;;;5051039;28;20475;-62
2023/02/16 03:47:43;;;;;;;30.40;17.33;;;51.80;2227.20;;;;;;5051302;28;20037;-62
2023/02/16 03:50:09;;;;;;;23.17;13.80;;;51.80;2227.20;;;;;;5051459;28;20402;-62
2023/02/16 03:52:35;;;;;;;26.48;14.40;;;51.80;2227.20;;;;;;5051128;28;20082;-62
2023/02/16 03:55:00;;;;;;;25.17;15.73;;;51.80;2227.20;;;;;;5051389;28;20025;-62
2023/02/16 03:57:26;;;;;;;31.08;15.48;;;51.70;2227.20;;;;;;5051255;28;20021;-62
2023/02/16 03:59:53;;;;;;;30.85;18.92;;;51.80;2227.20;;;;;;5051212;28;20025;-62
2023/02/16 04:02:19;;;;;;;37.25;20.73;;;51.60;2227.20;;;;;;5051287;28;20029;-62
2023/02/16 04:04:45;;;;;;;42.42;22.48;;;51.80;2227.20;;;;;;5050740;28;20028;-61
2023/02/16 04:07:10;;;;;;;33.28;20.25;;;51.80;2227.20;;;;;;5051217;28;20041;-61
2023/02/16 04:09:36;;;;;;;54.28;30.55;;;51.70;2227.20;;;;;;5050890;28;20455;-62
2023/02/16 04:14:46;;;;;;;29.25;16.48;;;51.70;2227.20;;;;;;5050746;28;20036;-62
2023/02/16 04:17:11;;;;;;;21.02;12.35;;;51.80;2227.20;;;;;;5051125;28;20025;-62
2023/02/16 04:19:37;;;;;;;20.55;12.82;;;51.60;2227.20;;;;;;5050686;28;20115;-62
2023/02/16 04:22:03;;;;;;;35.70;17.58;;;51.60;2227.20;;;;;;5051147;28;20021;-62
2023/02/16 04:24:28;;;;;;;38.30;20.02;;;51.50;2227.20;;;;;;5050667;28;20115;-62
2023/02/16 04:26:54;;;;;;;21.83;13.48;;;51.50;2227.20;;;;;;5050401;28;20037;-62
2023/02/16 04:29:20;;;;;;;22.45;12.40;;;51.40;2227.20;;;;;;5050818;28;20017;-62
2023/02/16 04:31:46;;;;;;;18.98;11.65;;;51.40;2227.20;;;;;;5050513;28;20082;-63
2023/02/16 04:34:11;;;;;;;23.02;11.55;;;51.40;2227.20;;;;;;5050651;28;20029;-62
2023/02/16 04:36:37;;;;;;;19.92;10.25;;;51.40;2227.20;;;;;;5050474;28;20122;-63
2023/02/16 04:39:04;;;;;;;19.52;11.57;;;51.50;2227.20;;;;;;5050380;28;20552;-63
2023/02/16 04:41:29;;;;;;;18.02;10.35;;;51.50;2227.20;;;;;;5050446;28;20483;-62
2023/02/16 04:43:55;;;;;;;19.02;10.23;;;51.40;2227.20;;;;;;5050334;28;20052;-63
2023/02/16 04:46:21;;;;;;;18.70;10.65;;;51.50;2227.20;;;;;;5050497;28;20468;-63
2023/02/16 04:48:46;;;;;;;27.50;14.02;;;51.40;2227.20;;;;;;5050461;28;20036;-63
2023/02/16 04:51:12;;;;;;;22.50;12.40;;;51.40;2227.20;;;;;;5050319;28;20025;-63
2023/02/16 04:53:38;;;;;;;20.77;12.20;;;51.40;2227.20;;;;;;5050026;28;20437;-63
2023/02/16 04:56:03;;;;;;;19.52;11.02;;;51.30;2227.20;;;;;;5053849;28;20052;-62
2023/02/16 04:58:29;;;;;;;17.23;9.00;;;51.30;2227.20;;;;;;5054304;28;20387;-62
2023/02/16 05:00:55;;;;;;;14.18;7.75;;;51.40;2227.20;;;;;;5054207;28;20021;-63
2023/02/16 05:03:20;;;;;;;15.05;8.35;;;51.40;2227.20;;;;;;5054302;28;20033;-63
2023/02/16 05:05:46;;;;;;;14.85;8.18;;;51.50;2227.20;;;;;;5054441;28;20021;-62
2023/02/16 05:08:12;;;;;;;15.23;9.63;;;51.60;2227.20;;;;;;5054228;28;20471;-62
2023/02/16 05:10:37;;;;;;;16.00;9.85;;;51.40;2227.20;;;;;;5054163;28;20126;-62
2023/02/16 05:15:48;;;;;;;18.27;10.70;;;51.30;2227.20;;;;;;5054247;28;20083;-63
2023/02/16 05:18:13;;;;;;;29.52;12.68;;;51.50;2227.20;;;;;;5053845;28;20056;-62
2023/02/16 05:23:23;;;;;;;27.65;16.08;;;51.50;2227.20;;;;;;5054094;28;20067;-62
2023/02/16 05:25:49;;;;;;;25.60;14.02;;;51.60;2227.20;;;;;;5054010;28;20410;-62
2023/02/16 05:28:14;;;;;;;26.75;15.82;;;51.70;2227.20;;;;;;5053756;28;20041;-62
2023/02/16 05:30:40;;;;;;;19.63;13.38;;;51.70;2227.20;;;;;;5053873;28;20025;-62
2023/02/16 05:33:06;;;;;;;29.33;16.70;;;51.70;2227.20;;;;;;5053542;28;20029;-62
2023/02/16 05:35:33;;;;;;;25.85;15.20;;;51.70;2227.20;;;;;;5054035;28;20021;-62
2023/02/16 05:37:59;;;;;;;54.28;27.95;;;51.70;2227.20;;;;;;5053612;28;20035;-62
2023/02/16 05:40:25;;;;;;;25.92;15.63;;;51.60;2227.20;;;;;;5053525;28;20025;-62
2023/02/16 05:42:54;;;;;;;29.60;18.25;;;51.70;2227.20;;;;;;5053526;28;20040;-61
2023/02/16 05:45:20;;;;;;;18.48;9.40;;;51.70;2227.20;;;;;;5053716;28;20036;-62
2023/02/16 05:47:45;;;;;;;17.10;9.90;;;51.60;2227.20;;;;;;5053214;28;20387;-62
2023/02/16 05:50:11;;;;;;;25.33;13.05;;;51.70;2227.20;;;;;;5053364;28;20025;-61
2023/02/16 05:52:37;;;;;;;19.30;11.32;;;51.60;2227.20;;;;;;5053318;28;20025;-62
2023/02/16 05:55:03;;;;;;;21.45;11.82;;;51.70;2227.20;;;;;;5053051;28;20033;-62
2023/02/16 05:57:29;;;;;;;18.88;10.50;;;51.80;2227.20;;;;;;5053467;28;20036;-62
2023/02/16 05:59:54;;;;;;;18.23;11.82;;;51.80;2227.20;;;;;;5053474;28;20045;-62
2023/02/16 06:02:20;;;;;;;22.83;12.88;;;51.80;2227.20;;;;;;5053730;28;20056;-62
2023/02/16 06:04:46;;;;;;;31.17;19.35;;;51.60;2227.20;;;;;;5052722;28;20017;-62
2023/02/16 06:07:11;;;;;;;316.42;167.80;;;51.80;2227.20;;;;;;5052830;28;20078;-62
2023/02/16 06:09:37;;;;;;;33.67;19.38;;;51.70;2227.20;;;;;;5052992;28;20165;-62
2023/02/16 06:12:03;;;;;;;24.23;14.73;;;51.80;2227.20;;;;;;5052887;28;20060;-62
2023/02/16 06:14:29;;;;;;;29.40;15.80;;;51.80;2227.20;;;;;;5053105;28;20467;-62
2023/02/16 06:16:56;;;;;;;27.23;15.52;;;51.90;2227.20;;;;;;5049359;28;20029;-62
2023/02/16 06:19:21;;;;;;;58.15;32.30;;;51.90;2227.20;;;;;;5053164;28;20052;-62
2023/02/16 06:21:47;;;;;;;35.80;17.67;;;52.00;2227.20;;;;;;5052572;28;20483;-62
2023/02/16 06:24:14;;;;;;;54.78;27.63;;;52.00;2227.20;;;;;;5052928;28;20033;-63
2023/02/16 06:26:40;;;;;;;46.97;25.73;;;52.10;2227.20;;;;;;5052927;28;20029;-62
2023/02/16 06:29:06;;;;;;;35.03;21.88;;;52.10;2227.20;;;;;;5052962;28;20037;-62
2023/02/16 06:31:32;;;;;;;25.92;16.23;;;76.80;2227.20;;;;;;5052757;28;20033;-62
2023/02/16 06:33:58;;;;;;;18.75;10.70;;;76.80;2227.20;;;;;;5052464;28;20044;-62
2023/02/16 06:36:24;;;;;;;17.15;10.88;;;76.90;2227.20;;;;;;5052805;28;20029;-62
2023/02/16 06:38:50;;;;;;;22.63;12.40;;;76.90;2227.20;;;;;;5052855;28;20025;-61
2023/02/16 06:41:48;;;;;;;18.70;13.75;;;76.90;2227.20;;;;;;5052053;28;20395;-62
2023/02/16 06:44:13;;;;;;;26.25;15.18;;;76.90;2227.20;;;;;;5049910;28;20103;-61
2023/02/16 06:46:43;;;;;;;19.70;12.73;;;76.90;2227.20;;;;;;5052450;28;20025;-61
2023/02/16 06:49:16;;;;;;;46.80;26.30;;;76.80;2227.20;;;;;;5052364;28;20037;-62
2023/02/16 06:51:42;;;;;;;35.95;16.75;;;76.80;2227.20;;;;;;5052749;28;20029;-62
2023/02/16 06:54:08;;;;;;;27.17;16.58;;;77.00;2227.20;;;;;;5052568;28;20037;-63
2023/02/16 06:56:34;;;;;;;73.07;37.03;;;77.10;2227.20;;;;;;5051892;28;20037;-63
2023/02/16 06:59:01;;;;;;;73.63;40.78;;;77.10;2227.20;;;;;;5052290;28;20029;-62
2023/02/16 07:01:27;;;;;;;175.10;116.05;;;77.10;2227.20;;;;;;5052440;28;20039;-62
2023/02/16 07:03:54;;;;;;;157.85;109.28;;;77.10;2227.20;;;;;;5052402;28;20029;-62
2023/02/16 07:06:22;;;;;;;138.40;90.05;;;77.20;2227.20;;;;;;5052202;28;20471;-62
2023/02/16 07:08:49;;;;;;;143.60;100.25;;;77.20;2227.20;;;;;;5047029;28;20139;-62
2023/02/16 07:11:16;;;;;;;175.93;110.43;;;77.40;2227.20;;;;;;5034313;28;20037;-61
2023/02/16 07:13:42;;;;;;;234.45;134.75;;;77.40;2227.20;;;;;;5032295;28;20069;-61
2023/02/16 07:16:08;;;;;;;401.95;236.68;;;77.50;2227.20;;;;;;5031820;28;20029;-61
2023/02/16 07:18:34;;;;;;;457.83;287.85;;;77.50;2227.20;;;;;;5030823;28;20029;-62
2023/02/16 07:21:00;;;;;;;403.20;246.15;;;77.60;2227.20;;;;;;5031747;28;20459;-62
2023/02/16 07:23:25;;;;;;;225.85;145.50;;;77.70;2227.20;;;;;;5031816;28;20087;-62
2023/02/16 07:25:51;;;;;;;306.40;199.75;;;77.70;2227.20;;;;;;5032005;28;20036;-62
2023/02/16 07:28:17;;;;;;;300.33;201.98;;;77.70;2227.20;;;;;;5031799;28;20033;-62
2023/02/16 07:30:42;;;;;;;261.15;173.88;;;77.70;2227.20;;;;;;5031870;28;20025;-61
2023/02/16 07:33:09;;;;;;;292.70;188.57;;;102.40;2227.20;;;;;;5031865;28;20026;-61
2023/02/16 07:35:35;;;;;;;257.00;171.55;;;102.40;2227.20;;;;;;5031527;28;20116;-61
2023/02/16 07:38:02;;;;;;;378.25;219.15;;;102.60;2227.20;;;;;;5031846;28;20112;-61
2023/02/16 07:40:28;;;;;;;377.55;232.73;;;102.80;2227.20;;;;;;5031423;28;20038;-61
2023/02/16 07:42:54;;;;;;;256.60;169.68;;;102.80;2227.20;;;;;;5033659;28;20387;-61
2023/02/16 07:45:19;;;;;;;186.73;122.15;;;102.80;2227.20;;;;;;5031183;28;20041;-61
2023/02/16 07:47:45;;;;;;;166.40;109.18;;;128.40;2252.80;;;;;;5030902;28;20476;-63
2023/02/16 07:50:11;;;;;;;216.43;153.80;;;179.30;2252.80;;;;;;5031415;28;20029;-62
2023/02/16 07:52:37;;;;;;;175.25;124.85;;;205.10;2252.80;;;;;;5030982;28;20127;-63
2023/02/16 07:55:03;;;;;;;191.25;128.43;;;230.80;2252.80;;;;;;5030927;28;20032;-63
2023/02/16 07:57:28;;;;;;;201.35;146.75;;;256.30;2176.00;;;;;;5030887;28;20029;-62
2023/02/16 07:59:55;;;;;;;147.90;105.35;;;282.00;2099.20;;;;;;5030900;28;20052;-63
2023/02/16 08:02:22;;;;;;;156.05;114.25;;;307.70;1996.80;;;;;;5031255;28;20080;-62
2023/02/16 08:04:48;;;;;;;156.27;113.72;;;333.20;1920.00;;;;;;5030830;28;20098;-63
2023/02/16 08:07:15;;;;;;;156.80;119.63;;;333.40;1868.80;;;;;;5030769;28;20068;-63
2023/02/16 08:09:41;;;;;;;189.18;146.77;;;333.50;1843.20;;;;;;5030974;28;20029;-62
2023/02/16 08:12:12;;;;;;;230.50;178.43;;;358.50;1792.00;;;;;;5030755;28;20029;-62
2023/02/16 08:14:38;;;;;;;209.52;161.45;;;359.20;1740.80;;;;;;5030520;28;20053;-62
2023/02/16 08:17:06;;;;;;;159.05;119.50;;;359.00;1740.80;;;;;;5035951;28;20025;-64
2023/02/16 08:19:33;;;;;;;203.70;157.13;;;358.90;1715.20;;;;;;5040820;28;20028;-63
2023/02/16 08:22:01;;;;;;;132.95;107.43;;;359.20;1715.20;;;;;;5033667;28;20064;-64
2023/02/16 08:24:27;;;;;;;163.07;129.43;;;384.00;1689.60;;;;;;5030542;28;20556;-64
2023/02/16 08:26:54;;;;;;;119.03;97.25;;;384.30;1664.00;;;;;;5030646;28;20502;-63
2023/02/16 08:29:21;;;;;;;128.27;105.18;;;384.60;1638.40;;;;;;5030536;28;20029;-64
2023/02/16 08:31:48;;;;;;;122.28;104.93;;;410.10;1612.80;;;;;;5030652;28;20368;-62
2023/02/16 08:34:15;;;;;;;114.97;97.90;;;410.50;1587.20;;;;;;5030581;28;20033;-62
2023/02/16 08:36:44;;;;;;;107.03;92.68;;;460.80;1587.20;;;;;;5030608;28;20538;-61
2023/02/16 08:39:14;;;;;;;89.03;72.47;;;461.70;1510.40;;;;;;5030426;28;20407;-62
2023/02/16 08:41:41;;;;;;;77.10;66.47;;;487.00;1459.20;;;;;;5030389;28;20033;-60
2023/02/16 08:44:08;;;;;;;73.25;60.72;;;512.40;1408.00;;;;;;5029998;28;20618;-61
2023/02/16 08:46:38;;;;;;;58.40;48.88;;;487.30;1382.40;;;;;;5030300;28;20033;-62
2023/02/16 08:49:04;;;;;;;71.35;57.45;;;461.70;1459.20;;;;;;5030223;28;20082;-62
2023/02/16 08:51:34;;;;;;;66.80;57.40;;;538.00;1382.40;;;;;;5030366;28;20033;-62
2023/02/16 08:54:01;;;;;;;70.50;58.95;;;487.30;1408.00;;;;;;5030207;28;20022;-62
2023/02/16 08:56:31;;;;;;;85.22;74.10;;;563.30;1356.80;;;;;;5030156;28;20026;-63
2023/02/16 08:58:58;;;;;;;84.97;71.43;;;538.00;1331.20;;;;;;5029990;28;20025;-63
2023/02/16 09:01:24;;;;;;;103.47;92.70;;;538.40;1331.20;;;;;;5030079;28;20036;-62
2023/02/16 09:03:51;;;;;;;107.18;96.07;;;589.00;1280.00;;;;;;5030558;28;20030;-62
2023/02/16 09:06:21;;;;;;;144.13;128.85;;;563.70;1331.20;;;;;;5030215;28;20040;-62
2023/02/16 09:08:51;;;;;;;111.25;99.20;;;564.00;1280.00;;;;;;5030054;28;20037;-62
2023/02/16 09:11:17;;;;;;;103.05;92.40;;;538.20;1331.20;;;;;;5029958;28;20033;-62
2023/02/16 09:13:43;;;;;;;93.10;83.60;;;563.90;1331.20;;;;;;5030628;28;20034;-61
2023/02/16 09:16:15;;;;;;;87.07;78.13;;;537.90;1331.20;;;;;;5030617;28;20033;-62
2023/02/16 09:18:41;;;;;;;99.00;86.00;;;512.50;1356.80;;;;;;5030501;28;20017;-62
2023/02/16 09:21:16;;;;;;;90.05;80.20;;;537.80;1356.80;;;;;;5031210;28;20544;-62
2023/02/16 09:23:46;;;;;;;91.10;81.38;;;512.00;1382.40;;;;;;5030468;28;20053;-62
2023/02/16 09:26:16;;;;;;;91.28;81.55;;;512.00;1382.40;;;;;;5030481;28;20434;-62
2023/02/16 09:28:44;;;;;;;101.05;90.45;;;487.00;1408.00;;;;;;5030621;28;20030;-61
2023/02/16 09:31:15;;;;;;;95.28;84.90;;;487.30;1382.40;;;;;;5030178;28;20076;-61
2023/02/16 09:33:42;;;;;;;91.43;81.50;;;487.10;1408.00;;;;;;5030120;28;20034;-61
2023/02/16 09:36:10;;;;;;;95.38;85.15;;;461.50;1459.20;;;;;;5030009;28;20040;-61
2023/02/16 09:38:36;;;;;;;94.13;79.90;;;460.80;1510.40;;;;;;5029861;28;20557;-64
2023/02/16 09:41:37;;;;;;;99.55;80.85;;;410.20;1587.20;;;;;;5031472;28;20113;-61
2023/02/16 09:44:27;;;;;;;111.80;84.45;;;384.40;1638.40;;;;;;5033796;28;20152;-61
2023/02/16 09:46:56;;;;;;;106.28;82.20;;;359.00;1689.60;;;;;;5033712;28;20017;-61
2023/02/16 09:49:28;;;;;;;106.75;76.18;;;358.80;1715.20;;;;;;5033405;28;20026;-64
2023/02/16 09:52:29;;;;;;;99.78;71.65;;;333.50;1766.40;;;;;;5033400;28;20029;-61
2023/02/16 09:54:58;;;;;;;87.88;64.40;;;333.10;1817.60;;;;;;5033283;28;20029;-60
2023/02/16 09:57:45;;;;;;;109.93;73.35;;;333.10;1817.60;;;;;;5033035;28;20162;-61
2023/02/16 10:00:29;;;;;;;78.15;54.33;;;332.80;1843.20;;;;;;5033445;28;20028;-61
2023/02/16 10:03:20;;;;;;;90.25;56.85;;;333.00;1843.20;;;;;;5033147;28;20542;-61
2023/02/16 10:05:55;;;;;;;65.07;49.53;;;333.20;1843.20;;;;;;5033010;28;20025;-61
2023/02/16 10:08:37;;;;;;;78.72;52.85;;;333.00;1843.20;;;;;;5033120;28;20042;-60
2023/02/16 10:14:42;;;;;;;79.88;53.38;;;333.00;1868.80;;;;;;4991386;28;20038;-61
2023/02/16 10:17:14;;;;;;;86.90;60.93;;;332.80;1945.60;;;;;;4991384;28;20054;-61
2023/02/16 10:19:54;;;;;;;93.40;64.50;;;308.10;1920.00;;;;;;4991441;28;20600;-60
2023/02/16 10:22:30;;;;;;;78.55;55.60;;;332.90;1920.00;;;;;;4991488;28;20030;-61
2023/02/16 10:25:11;;;;;;;72.40;51.78;;;332.90;1920.00;;;;;;4990736;28;20034;-61
2023/02/16 10:27:43;;;;;;;128.77;78.10;;;332.80;1920.00;;;;;;4991050;28;20120;-61
2023/02/16 10:30:14;;;;;;;76.05;51.05;;;308.10;1894.40;;;;;;4991204;28;20469;-61
2023/02/16 10:32:52;;;;;;;59.13;40.15;;;332.90;1920.00;;;;;;4991172;28;20043;-61
2023/02/16 10:35:27;;;;;;;62.53;41.63;;;333.00;1920.00;;;;;;4991025;28;20068;-61
2023/02/16 10:38:06;;;;;;;68.40;46.28;;;308.10;1894.40;;;;;;4991317;28;20038;-61
2023/02/16 10:40:59;;;;;;;57.47;39.20;;;308.00;1894.40;;;;;;4991247;28;20034;-61
2023/02/16 10:43:42;;;;;;;57.10;38.70;;;308.00;1920.00;;;;;;4990706;28;20057;-61
2023/02/16 10:46:10;;;;;;;;;;;332.80;1920.00;;;;;;5046802;28;20067;-61
2023/02/16 10:48:36;;;;;;;52.85;37.80;;;332.90;1920.00;;;;;;5052441;28;20279;-61
2023/02/16 10:51:15;;;;;;;56.40;38.53;;;332.90;1920.00;;;;;;5052428;28;20029;-61
2023/02/16 10:53:51;;;;;;;61.38;38.35;;;333.20;1920.00;;;;;;5052413;28;20021;-61
2023/02/16 10:56:49;;;;;;;52.30;37.78;;;333.10;1920.00;;;;;;5051983;28;20025;-61
2023/02/16 10:59:17;;;;;;;60.88;41.72;;;333.20;1920.00;;;;;;5034152;28;20033;-61
2023/02/16 11:01:48;;;;;;;53.17;36.33;;;333.20;1920.00;;;;;;5052265;28;20021;-62
2023/02/16 11:04:42;;;;;;;47.47;32.08;;;333.20;1868.80;;;;;;5051787;28;20029;-62
2023/02/16 11:07:09;;;;;;;51.20;40.00;;;333.50;1843.20;;;;;;5052036;28;20442;-62
2023/02/16 11:09:37;;;;;;;40.60;28.45;;;333.40;1843.20;;;;;;5051924;28;20033;-62
2023/02/16 11:12:28;;;;;;;40.30;30.52;;;333.50;1843.20;;;;;;5051975;28;20529;-62
2023/02/16 11:15:15;;;;;;;43.58;31.85;;;333.40;1843.20;;;;;;5052027;28;20124;-62
2023/02/16 11:18:21;;;;;;;52.53;33.33;;;333.40;1843.20;;;;;;4951814;29;20067;-61
2023/02/16 11:20:47;;;;;;;50.97;33.28;;;333.40;1868.80;;;;;;4951666;29;20451;-61
2023/02/16 11:23:32;;;;;;;52.55;39.85;;;333.50;1868.80;;;;;;4951740;28;20125;-62
2023/02/16 11:26:10;;;;;;;50.10;32.92;;;333.50;1868.80;;;;;;4951267;29;20204;-62
2023/02/16 11:28:43;;;;;;;37.55;25.55;;;333.70;1868.80;;;;;;4951335;29;20129;-62
2023/02/16 11:31:15;;;;;;;38.13;25.23;;;333.70;1843.20;;;;;;4951290;29;20028;-62
2023/02/16 11:33:52;;;;;;;37.08;26.98;;;333.70;1817.60;;;;;;4951626;29;20074;-62
2023/02/16 11:36:28;;;;;;;27.50;19.85;;;358.40;1792.00;;;;;;4951138;29;20044;-62
2023/02/16 11:39:06;;;;;;;28.80;18.63;;;358.40;1766.40;;;;;;4951391;29;20027;-62
2023/02/16 11:41:33;;;;;;;30.00;19.92;;;358.50;1766.40;;;;;;4951315;29;20510;-62
2023/02/16 11:44:01;;;;;;;34.30;23.23;;;358.60;1766.40;;;;;;4960134;28;20575;-61
2023/02/16 11:46:36;;;;;;;40.55;26.02;;;358.70;1766.40;;;;;;4970404;28;20022;-62
2023/02/16 11:49:21;;;;;;;30.00;20.40;;;358.60;1766.40;;;;;;4970281;28;20050;-62
2023/02/16 11:51:47;;;;;;;31.10;21.70;;;358.50;1792.00;;;;;;4970525;28;20049;-62
2023/02/16 11:54:17;;;;;;;29.95;21.13;;;358.50;1792.00;;;;;;4992963;28;20365;-62
2023/02/16 11:56:44;;;;;;;41.80;26.02;;;358.70;1766.40;;;;;;5050794;28;20447;-62
2023/02/16 11:59:20;;;;;;;28.77;19.55;;;358.70;1766.40;;;;;;5051218;28;20029;-62
2023/02/16 12:01:54;;;;;;;31.80;22.92;;;358.80;1766.40;;;;;;5050896;28;20136;-62
2023/02/16 12:04:29;;;;;;;33.75;22.10;;;358.80;1740.80;;;;;;5050460;28;20017;-63
2023/02/16 12:07:26;;;;;;;35.55;20.20;;;358.80;1715.20;;;;;;5050793;28;20021;-62
2023/02/16 12:10:14;;;;;;;37.10;18.92;;;358.80;1715.20;;;;;;5050913;28;20025;-62
2023/02/16 12:12:54;;;;;;;31.67;20.35;;;358.90;1689.60;;;;;;5050729;28;20029;-61
2023/02/16 12:15:35;;;;;;;25.92;20.13;;;358.90;1689.60;;;;;;5051011;28;20033;-61
2023/02/16 12:18:05;;;;;;;26.92;19.48;;;358.80;1689.60;;;;;;5050717;28;20029;-61
2023/02/16 12:20:31;;;;;;;53.97;22.65;;;358.90;1689.60;;;;;;5050684;28;20094;-61
2023/02/16 12:23:30;;;;;;;31.42;23.10;;;359.10;1689.60;;;;;;5050321;28;20451;-61
2023/02/16 12:26:32;;;;;;;39.03;24.15;;;359.10;1638.40;;;;;;5050151;28;20029;-62
2023/02/16 12:29:19;;;;;;;32.72;23.02;;;359.10;1638.40;;;;;;5050558;28;20037;-62
2023/02/16 12:31:50;;;;;;;31.30;22.25;;;359.20;1638.40;;;;;;5050610;28;20492;-61
2023/02/16 12:34:57;;;;;;;33.88;22.98;;;359.10;1638.40;;;;;;5050405;28;20108;-61
2023/02/16 12:37:41;;;;;;;28.88;20.88;;;359.10;1638.40;;;;;;5050459;28;20029;-62
2023/02/16 12:40:19;;;;;;;;;;;359.30;1638.40;;;;;;5050617;28;20411;-62
2023/02/16 12:43:25;;;;;;;71.00;41.75;;;359.20;1638.40;;;;;;5050270;28;20279;-62
2023/02/16 12:45:53;;;;;;;35.95;24.58;;;359.30;1638.40;;;;;;4950536;29;20457;-62
2023/02/16 12:48:39;;;;;;;31.48;24.15;;;384.00;1638.40;;;;;;4950330;28;20047;-62
2023/02/16 12:51:27;;;;;;;35.47;26.35;;;384.00;1638.40;;;;;;4950323;29;20051;-61
2023/02/16 12:53:59;;;;;;;48.42;28.58;;;384.10;1638.40;;;;;;4950077;29;20028;-62
2023/02/16 12:56:35;;;;;;;48.70;28.77;;;384.00;1638.40;;;;;;4950081;29;20484;-61
2023/02/16 12:59:44;;;;;;;39.78;26.27;;;384.10;1664.00;;;;;;4950137;29;20058;-62
2023/02/16 13:02:25;;;;;;;38.42;27.17;;;384.10;1664.00;;;;;;4912105;29;20032;-62
2023/02/16 13:05:01;;;;;;;59.20;35.45;;;384.10;1664.00;;;;;;4912268;29;20111;-61
2023/02/16 13:07:36;;;;;;;78.72;48.35;;;384.10;1664.00;;;;;;4911838;29;20051;-62
2023/02/16 13:10:24;;;;;;;59.00;38.38;;;384.30;1689.60;;;;;;4912064;29;20047;-62
2023/02/16 13:12:59;;;;;;;46.33;31.10;;;384.30;1689.60;;;;;;4911953;29;20032;-62